sensor_id;sensor_type;location;lat;lon;timestamp;pressure;altitude;pressure_sealevel;temperature;humidity
64872;BME280;51351;51.450;6.614;2024-01-30T00:01:52;102569.41;;;8.31;100.00
64872;BME280;51351;51.450;6.614;2024-01-30T00:04:18;102575.47;;;8.32;100.00
64872;BME280;51351;51.450;6.614;2024-01-30T00:06:44;102572.00;;;8.31;100.00
64872;BME280;51351;51.450;6.614;2024-01-30T00:09:10;102569.50;;;8.30;100.00
64872;BME280;51351;51.450;6.614;2024-01-30T00:11:38;102566.13;;;8.28;100.00
64872;BME280;51351;51.450;6.614;2024-01-30T00:14:05;102561.84;;;8.27;100.00
64872;BME280;51351;51.450;6.614;2024-01-30T00:16:31;102569.78;;;8.24;100.00
64872;BME280;51351;51.450;6.614;2024-01-30T00:18:58;102563.88;;;8.20;100.00
64872;BME280;51351;51.450;6.614;2024-01-30T00:21:23;102563.88;;;8.20;100.00
64872;BME280;51351;51.450;6.614;2024-01-30T00:23:49;102563.09;;;8.18;100.00
64872;BME280;51351;51.450;6.614;2024-01-30T00:26:15;102560.50;;;8.18;100.00
64872;BME280;51351;51.450;6.614;2024-01-30T00:28:42;102559.75;;;8.16;100.00
64872;BME280;51351;51.450;6.614;2024-01-30T00:31:09;102558.06;;;8.15;100.00
64872;BME280;51351;51.450;6.614;2024-01-30T00:33:38;102548.72;;;8.11;100.00
64872;BME280;51351;51.450;6.614;2024-01-30T00:36:09;102552.19;;;8.12;100.00
64872;BME280;51351;51.450;6.614;2024-01-30T00:38:35;102549.66;;;8.10;100.00
64872;BME280;51351;51.450;6.614;2024-01-30T00:41:01;102547.03;;;8.10;100.00
64872;BME280;51351;51.450;6.614;2024-01-30T00:43:30;102548.88;;;8.08;100.00
64872;BME280;51351;51.450;6.614;2024-01-30T00:45:56;102547.94;;;8.09;100.00
64872;BME280;51351;51.450;6.614;2024-01-30T00:48:23;102549.81;;;8.07;100.00
64872;BME280;51351;51.450;6.614;2024-01-30T00:50:48;102552.47;;;8.06;100.00
64872;BME280;51351;51.450;6.614;2024-01-30T00:53:14;102555.16;;;8.04;100.00
64872;BME280;51351;51.450;6.614;2024-01-30T00:55:39;102553.56;;;8.02;100.00
64872;BME280;51351;51.450;6.614;2024-01-30T00:58:06;102560.59;;;8.00;100.00
64872;BME280;51351;51.450;6.614;2024-01-30T01:00:32;102563.19;;;8.00;100.00
64872;BME280;51351;51.450;6.614;2024-01-30T01:02:59;102556.38;;;7.97;100.00
64872;BME280;51351;51.450;6.614;2024-01-30T01:05:26;102563.34;;;7.97;100.00
64872;BME280;51351;51.450;6.614;2024-01-30T01:07:52;102555.59;;;7.95;100.00
64872;BME280;51351;51.450;6.614;2024-01-30T01:10:17;102563.34;;;7.97;100.00
64872;BME280;51351;51.450;6.614;2024-01-30T01:12:44;102558.13;;;7.97;100.00
64872;BME280;51351;51.450;6.614;2024-01-30T01:15:11;102559.81;;;7.98;100.00
64872;BME280;51351;51.450;6.614;2024-01-30T01:17:38;102559.72;;;7.99;100.00
64872;BME280;51351;51.450;6.614;2024-01-30T01:20:04;102554.53;;;7.99;100.00
64872;BME280;51351;51.450;6.614;2024-01-30T01:22:32;102552.00;;;7.98;100.00
64872;BME280;51351;51.450;6.614;2024-01-30T01:25:00;102552.69;;;8.01;100.00
64872;BME280;51351;51.450;6.614;2024-01-30T01:27:26;102547.41;;;8.03;100.00
64872;BME280;51351;51.450;6.614;2024-01-30T01:29:53;102552.31;;;8.09;100.00
64872;BME280;51351;51.450;6.614;2024-01-30T01:32:19;102546.97;;;8.12;100.00
64872;BME280;51351;51.450;6.614;2024-01-30T01:34:45;102547.03;;;8.10;100.00
64872;BME280;51351;51.450;6.614;2024-01-30T01:37:10;102542.66;;;8.11;100.00
64872;BME280;51351;51.450;6.614;2024-01-30T01:39:36;102543.44;;;8.13;100.00
64872;BME280;51351;51.450;6.614;2024-01-30T01:42:02;102547.63;;;8.15;100.00
64872;BME280;51351;51.450;6.614;2024-01-30T01:44:28;102546.91;;;8.13;100.00
64872;BME280;51351;51.450;6.614;2024-01-30T01:46:54;102543.59;;;8.10;100.00
64872;BME280;51351;51.450;6.614;2024-01-30T01:49:22;102548.88;;;8.08;100.00
64872;BME280;51351;51.450;6.614;2024-01-30T01:51:48;102544.44;;;8.10;100.00
64872;BME280;51351;51.450;6.614;2024-01-30T01:54:15;102540.25;;;8.08;100.00
64872;BME280;51351;51.450;6.614;2024-01-30T01:56:42;102538.63;;;8.05;100.00
64872;BME280;51351;51.450;6.614;2024-01-30T01:59:08;102543.97;;;8.02;100.00
64872;BME280;51351;51.450;6.614;2024-01-30T02:01:39;102539.78;;;8.00;100.00
64872;BME280;51351;51.450;6.614;2024-01-30T02:04:11;102537.88;;;8.03;100.00
64872;BME280;51351;51.450;6.614;2024-01-30T02:06:37;102537.78;;;8.05;100.00
64872;BME280;51351;51.450;6.614;2024-01-30T02:09:04;102531.88;;;8.01;100.00
64872;BME280;51351;51.450;6.614;2024-01-30T02:11:30;102527.69;;;7.99;100.00
64872;BME280;51351;51.450;6.614;2024-01-30T02:13:56;102524.31;;;7.97;100.00
64872;BME280;51351;51.450;6.614;2024-01-30T02:16:22;102521.78;;;7.95;100.00
64872;BME280;51351;51.450;6.614;2024-01-30T02:18:49;102521.03;;;7.93;100.00
64872;BME280;51351;51.450;6.614;2024-01-30T02:21:18;102518.59;;;7.90;100.00
64872;BME280;51351;51.450;6.614;2024-01-30T02:23:47;102512.53;;;7.90;100.00
64872;BME280;51351;51.450;6.614;2024-01-30T02:26:13;102515.28;;;7.87;100.00
64872;BME280;51351;51.450;6.614;2024-01-30T02:28:43;102511.22;;;7.81;100.00
64872;BME280;51351;51.450;6.614;2024-01-30T02:31:10;102509.47;;;7.82;100.00
64872;BME280;51351;51.450;6.614;2024-01-30T02:33:36;102512.16;;;7.80;100.00
64872;BME280;51351;51.450;6.614;2024-01-30T02:36:04;102506.16;;;7.78;100.00
64872;BME280;51351;51.450;6.614;2024-01-30T02:38:30;102501.81;;;7.79;100.00
64872;BME280;51351;51.450;6.614;2024-01-30T02:40:56;102503.56;;;7.78;100.00
64872;BME280;51351;51.450;6.614;2024-01-30T02:43:22;102497.44;;;7.79;100.00
64872;BME280;51351;51.450;6.614;2024-01-30T02:45:48;102499.28;;;7.77;100.00
64872;BME280;51351;51.450;6.614;2024-01-30T02:48:13;102496.84;;;7.74;100.00
64872;BME280;51351;51.450;6.614;2024-01-30T02:50:39;102490.94;;;7.71;100.00
64872;BME280;51351;51.450;6.614;2024-01-30T02:53:05;102497.13;;;7.68;100.00
64872;BME280;51351;51.450;6.614;2024-01-30T02:55:30;102491.16;;;7.66;100.00
64872;BME280;51351;51.450;6.614;2024-01-30T02:57:57;102498.34;;;7.61;100.00
64872;BME280;51351;51.450;6.614;2024-01-30T03:00:23;102494.16;;;7.59;100.00
64872;BME280;51351;51.450;6.614;2024-01-30T03:02:49;102501.19;;;7.57;100.00
64872;BME280;51351;51.450;6.614;2024-01-30T03:05:15;102495.06;;;7.58;100.00
64872;BME280;51351;51.450;6.614;2024-01-30T03:07:42;102494.22;;;7.57;100.00
64872;BME280;51351;51.450;6.614;2024-01-30T03:10:09;102493.44;;;7.55;100.00
64872;BME280;51351;51.450;6.614;2024-01-30T03:12:34;102487.31;;;7.56;100.00
64872;BME280;51351;51.450;6.614;2024-01-30T03:15:00;102487.09;;;7.61;100.00
64872;BME280;51351;51.450;6.614;2024-01-30T03:17:27;102494.91;;;7.61;100.00
64872;BME280;51351;51.450;6.614;2024-01-30T03:19:52;102483.75;;;7.59;100.00
64872;BME280;51351;51.450;6.614;2024-01-30T03:22:21;102498.44;;;7.60;100.00
64872;BME280;51351;51.450;6.614;2024-01-30T03:24:47;102491.41;;;7.62;100.00
64872;BME280;51351;51.450;6.614;2024-01-30T03:27:13;102483.34;;;7.66;100.00
64872;BME280;51351;51.450;6.614;2024-01-30T03:29:38;102485.22;;;7.64;100.00
64872;BME280;51351;51.450;6.614;2024-01-30T03:32:04;102483.63;;;7.62;100.00
64872;BME280;51351;51.450;6.614;2024-01-30T03:34:30;102483.84;;;7.57;100.00
64872;BME280;51351;51.450;6.614;2024-01-30T03:36:56;102470.91;;;7.56;100.00
64872;BME280;51351;51.450;6.614;2024-01-30T03:39:23;102478.78;;;7.54;100.00
64872;BME280;51351;51.450;6.614;2024-01-30T03:41:49;102484.97;;;7.52;100.00
64872;BME280;51351;51.450;6.614;2024-01-30T03:44:15;102487.66;;;7.50;100.00
64872;BME280;51351;51.450;6.614;2024-01-30T03:46:42;102479.06;;;7.48;100.00
64872;BME280;51351;51.450;6.614;2024-01-30T03:49:09;102476.41;;;7.50;100.00
64872;BME280;51351;51.450;6.614;2024-01-30T03:51:35;102481.75;;;7.47;100.00
64872;BME280;51351;51.450;6.614;2024-01-30T03:54:01;102473.34;;;7.42;100.00
64872;BME280;51351;51.450;6.614;2024-01-30T03:56:26;102469.66;;;7.46;100.00
64872;BME280;51351;51.450;6.614;2024-01-30T03:58:53;102464.41;;;7.47;100.00
64872;BME280;51351;51.450;6.614;2024-01-30T04:01:19;102460.88;;;7.48;100.00
64872;BME280;51351;51.450;6.614;2024-01-30T04:03:45;102461.03;;;7.45;100.00
64872;BME280;51351;51.450;6.614;2024-01-30T04:06:11;102464.47;;;7.46;100.00
64872;BME280;51351;51.450;6.614;2024-01-30T04:08:42;102458.19;;;7.50;100.00
64872;BME280;51351;51.450;6.614;2024-01-30T04:11:08;102455.69;;;7.48;100.00
64872;BME280;51351;51.450;6.614;2024-01-30T04:13:33;102449.63;;;7.47;100.00
64872;BME280;51351;51.450;6.614;2024-01-30T04:16:06;102459.34;;;7.44;100.00
64872;BME280;51351;51.450;6.614;2024-01-30T04:18:31;102452.78;;;7.37;100.00
64872;BME280;51351;51.450;6.614;2024-01-30T04:20:59;102454.50;;;7.36;100.00
64872;BME280;51351;51.450;6.614;2024-01-30T04:23:25;102459.34;;;7.44;100.00
64872;BME280;51351;51.450;6.614;2024-01-30T04:25:50;102458.56;;;7.42;100.00
64872;BME280;51351;51.450;6.614;2024-01-30T04:28:16;102452.38;;;7.44;100.00
64872;BME280;51351;51.450;6.614;2024-01-30T04:30:41;102448.66;;;7.50;100.00
64872;BME280;51351;51.450;6.614;2024-01-30T04:33:07;102451.00;;;7.55;100.00
64872;BME280;51351;51.450;6.614;2024-01-30T04:35:33;102451.84;;;7.55;100.00
64872;BME280;51351;51.450;6.614;2024-01-30T04:37:58;102447.34;;;7.59;100.00
64872;BME280;51351;51.450;6.614;2024-01-30T04:40:27;102445.50;;;7.61;100.00
64872;BME280;51351;51.450;6.614;2024-01-30T04:42:53;102449.88;;;7.60;100.00
64872;BME280;51351;51.450;6.614;2024-01-30T04:45:18;102450.78;;;7.59;100.00
64872;BME280;51351;51.450;6.614;2024-01-30T04:47:44;102451.00;;;7.55;100.00
64872;BME280;51351;51.450;6.614;2024-01-30T04:50:10;102445.72;;;7.56;100.00
64872;BME280;51351;51.450;6.614;2024-01-30T04:52:35;102449.09;;;7.58;100.00
64872;BME280;51351;51.450;6.614;2024-01-30T04:55:05;102449.19;;;7.57;100.00
64872;BME280;51351;51.450;6.614;2024-01-30T04:57:31;102455.53;;;7.51;100.00
64872;BME280;51351;51.450;6.614;2024-01-30T05:00:00;102451.41;;;7.47;100.00
64872;BME280;51351;51.450;6.614;2024-01-30T05:02:27;102448.03;;;7.45;100.00
64872;BME280;51351;51.450;6.614;2024-01-30T05:04:52;102455.03;;;7.43;100.00
64872;BME280;51351;51.450;6.614;2024-01-30T05:07:18;102450.78;;;7.42;100.00
64872;BME280;51351;51.450;6.614;2024-01-30T05:09:46;102449.84;;;7.43;100.00
64872;BME280;51351;51.450;6.614;2024-01-30T05:12:13;102444.66;;;7.43;100.00
64872;BME280;51351;51.450;6.614;2024-01-30T05:14:40;102435.94;;;7.44;100.00
64872;BME280;51351;51.450;6.614;2024-01-30T05:17:05;102437.63;;;7.45;100.00
64872;BME280;51351;51.450;6.614;2024-01-30T05:19:31;102443.81;;;7.43;100.00
64872;BME280;51351;51.450;6.614;2024-01-30T05:21:57;102445.34;;;7.47;100.00
64872;BME280;51351;51.450;6.614;2024-01-30T05:24:23;102443.38;;;7.52;100.00
64872;BME280;51351;51.450;6.614;2024-01-30T05:26:51;102445.97;;;7.52;100.00
64872;BME280;51351;51.450;6.614;2024-01-30T05:29:18;102442.31;;;7.56;100.00
64872;BME280;51351;51.450;6.614;2024-01-30T05:31:44;102439.63;;;7.57;100.00
64872;BME280;51351;51.450;6.614;2024-01-30T05:34:10;102439.63;;;7.57;100.00
64872;BME280;51351;51.450;6.614;2024-01-30T05:36:36;102428.44;;;7.55;100.00
64872;BME280;51351;51.450;6.614;2024-01-30T05:39:01;102425.91;;;7.54;100.00
64872;BME280;51351;51.450;6.614;2024-01-30T05:41:31;102423.31;;;7.54;100.00
64872;BME280;51351;51.450;6.614;2024-01-30T05:43:58;102431.19;;;7.52;100.00
64872;BME280;51351;51.450;6.614;2024-01-30T05:46:26;102425.19;;;7.52;100.00
64872;BME280;51351;51.450;6.614;2024-01-30T05:48:56;102417.19;;;7.55;100.00
64872;BME280;51351;51.450;6.614;2024-01-30T05:51:22;102417.97;;;7.57;100.00
64872;BME280;51351;51.450;6.614;2024-01-30T05:53:49;102419.66;;;7.58;100.00
64872;BME280;51351;51.450;6.614;2024-01-30T05:56:17;102422.25;;;7.58;100.00
64872;BME280;51351;51.450;6.614;2024-01-30T05:58:43;102423.81;;;7.62;100.00
64872;BME280;51351;51.450;6.614;2024-01-30T06:01:09;102429.59;;;7.67;100.00
64872;BME280;51351;51.450;6.614;2024-01-30T06:03:35;102436.47;;;7.68;100.00
64872;BME280;51351;51.450;6.614;2024-01-30T06:06:01;102432.13;;;7.68;100.00
64872;BME280;51351;51.450;6.614;2024-01-30T06:08:28;102439.06;;;7.68;100.00
64872;BME280;51351;51.450;6.614;2024-01-30T06:10:54;102437.47;;;7.65;100.00
64872;BME280;51351;51.450;6.614;2024-01-30T06:13:21;102431.34;;;7.66;100.00
64872;BME280;51351;51.450;6.614;2024-01-30T06:15:50;102437.53;;;7.64;100.00
64872;BME280;51351;51.450;6.614;2024-01-30T06:18:15;102438.25;;;7.67;100.00
64872;BME280;51351;51.450;6.614;2024-01-30T06:20:43;102435.66;;;7.67;100.00
64872;BME280;51351;51.450;6.614;2024-01-30T06:23:08;102433.03;;;7.67;100.00
64872;BME280;51351;51.450;6.614;2024-01-30T06:25:36;102426.84;;;7.70;100.00
64872;BME280;51351;51.450;6.614;2024-01-30T06:28:03;102435.66;;;7.67;100.00
64872;BME280;51351;51.450;6.614;2024-01-30T06:30:28;102425.41;;;7.64;100.00
64872;BME280;51351;51.450;6.614;2024-01-30T06:32:55;102422.88;;;7.63;100.00
64872;BME280;51351;51.450;6.614;2024-01-30T06:35:21;102429.66;;;7.65;100.00
64872;BME280;51351;51.450;6.614;2024-01-30T06:37:47;102418.34;;;7.66;100.00
64872;BME280;51351;51.450;6.614;2024-01-30T06:40:13;102425.31;;;7.66;100.00
64872;BME280;51351;51.450;6.614;2024-01-30T06:42:39;102427.84;;;7.67;100.00
64872;BME280;51351;51.450;6.614;2024-01-30T06:45:06;102421.78;;;7.67;100.00
64872;BME280;51351;51.450;6.614;2024-01-30T06:47:32;102425.41;;;7.64;100.00
64872;BME280;51351;51.450;6.614;2024-01-30T06:49:58;102429.91;;;7.61;100.00
64872;BME280;51351;51.450;6.614;2024-01-30T06:52:23;102438.41;;;7.64;100.00
64872;BME280;51351;51.450;6.614;2024-01-30T06:54:49;102446.19;;;7.64;100.00
64872;BME280;51351;51.450;6.614;2024-01-30T06:57:15;102441.06;;;7.63;100.00
64872;BME280;51351;51.450;6.614;2024-01-30T06:59:40;102441.16;;;7.61;100.00
64872;BME280;51351;51.450;6.614;2024-01-30T07:02:12;102442.81;;;7.62;100.00
64872;BME280;51351;51.450;6.614;2024-01-30T07:04:37;102448.81;;;7.64;100.00
64872;BME280;51351;51.450;6.614;2024-01-30T07:07:03;102446.13;;;7.66;100.00
64872;BME280;51351;51.450;6.614;2024-01-30T07:09:30;102443.44;;;7.67;100.00
64872;BME280;51351;51.450;6.614;2024-01-30T07:11:58;102440.84;;;7.67;100.00
64872;BME280;51351;51.450;6.614;2024-01-30T07:14:25;102452.84;;;7.70;100.00
64872;BME280;51351;51.450;6.614;2024-01-30T07:16:50;102459.06;;;7.67;100.00
64872;BME280;51351;51.450;6.614;2024-01-30T07:19:16;102457.34;;;7.66;100.00
64872;BME280;51351;51.450;6.614;2024-01-30T07:21:42;102448.34;;;7.73;100.00
64872;BME280;51351;51.450;6.614;2024-01-30T07:24:08;102449.94;;;7.76;100.00
64872;BME280;51351;51.450;6.614;2024-01-30T07:26:33;102453.06;;;7.82;100.00
64872;BME280;51351;51.450;6.614;2024-01-30T07:29:03;102465.91;;;7.85;100.00
64872;BME280;51351;51.450;6.614;2024-01-30T07:31:29;102469.44;;;7.84;100.00
64872;BME280;51351;51.450;6.614;2024-01-30T07:33:54;102471.19;;;7.84;100.00
64872;BME280;51351;51.450;6.614;2024-01-30T07:36:20;102476.31;;;7.85;100.00
64872;BME280;51351;51.450;6.614;2024-01-30T07:38:46;102470.13;;;7.88;100.00
64872;BME280;51351;51.450;6.614;2024-01-30T07:41:11;102479.41;;;7.93;100.00
64872;BME280;51351;51.450;6.614;2024-01-30T07:43:38;102479.13;;;7.98;100.00
64872;BME280;51351;51.450;6.614;2024-01-30T07:46:03;102477.41;;;7.98;100.00
64872;BME280;51351;51.450;6.614;2024-01-30T07:48:29;102484.13;;;8.02;100.00
64872;BME280;51351;51.450;6.614;2024-01-30T07:50:55;102484.88;;;8.04;100.00
64872;BME280;51351;51.450;6.614;2024-01-30T07:53:20;102484.03;;;8.04;100.00
64872;BME280;51351;51.450;6.614;2024-01-30T07:55:46;102488.34;;;8.05;100.00
64872;BME280;51351;51.450;6.614;2024-01-30T07:58:12;102483.97;;;8.05;100.00
64872;BME280;51351;51.450;6.614;2024-01-30T08:00:38;102485.66;;;8.06;100.00
64872;BME280;51351;51.450;6.614;2024-01-30T08:03:04;102489.00;;;8.08;100.00
64872;BME280;51351;51.450;6.614;2024-01-30T08:05:30;102500.19;;;8.10;100.00
64872;BME280;51351;51.450;6.614;2024-01-30T08:07:55;102501.88;;;8.11;100.00
64872;BME280;51351;51.450;6.614;2024-01-30T08:10:21;102507.78;;;8.15;100.00
64872;BME280;51351;51.450;6.614;2024-01-30T08:12:46;102506.00;;;8.15;100.00
64872;BME280;51351;51.450;6.614;2024-01-30T08:15:12;102509.38;;;8.17;100.00
64872;BME280;51351;51.450;6.614;2024-01-30T08:17:41;102508.28;;;8.21;100.00
64872;BME280;51351;51.450;6.614;2024-01-30T08:20:07;102505.56;;;8.24;100.00
64872;BME280;51351;51.450;6.614;2024-01-30T08:22:33;102506.34;;;8.26;100.00
64872;BME280;51351;51.450;6.614;2024-01-30T08:24:59;102505.25;;;8.30;100.00
64872;BME280;51351;51.450;6.614;2024-01-30T08:27:24;102500.78;;;8.32;100.00
64872;BME280;51351;51.450;6.614;2024-01-30T08:29:50;102503.09;;;8.38;100.00
64872;BME280;51351;51.450;6.614;2024-01-30T08:32:15;102505.59;;;8.40;100.00
64872;BME280;51351;51.450;6.614;2024-01-30T08:34:44;102500.31;;;8.41;100.00
64872;BME280;51351;51.450;6.614;2024-01-30T08:37:09;102510.66;;;8.43;100.00
64872;BME280;51351;51.450;6.614;2024-01-30T08:39:35;102497.47;;;8.46;100.00
64872;BME280;51351;51.450;6.614;2024-01-30T08:42:00;102508.75;;;8.46;100.00
64872;BME280;51351;51.450;6.614;2024-01-30T08:44:26;102507.75;;;8.49;100.00
64872;BME280;51351;51.450;6.614;2024-01-30T08:46:52;102511.28;;;8.48;100.00
64872;BME280;51351;51.450;6.614;2024-01-30T08:49:19;102516.31;;;8.51;100.00
64872;BME280;51351;51.450;6.614;2024-01-30T08:51:45;102520.59;;;8.52;100.00
64872;BME280;51351;51.450;6.614;2024-01-30T08:54:11;102520.59;;;8.52;100.00
64872;BME280;51351;51.450;6.614;2024-01-30T08:56:36;102515.41;;;8.52;100.00
64872;BME280;51351;51.450;6.614;2024-01-30T08:59:01;102520.69;;;8.50;100.00
64872;BME280;51351;51.450;6.614;2024-01-30T09:01:27;102528.50;;;8.50;100.00
64872;BME280;51351;51.450;6.614;2024-01-30T09:03:53;102534.63;;;8.49;100.00
64872;BME280;51351;51.450;6.614;2024-01-30T09:06:18;102538.06;;;8.50;100.00
64872;BME280;51351;51.450;6.614;2024-01-30T09:08:43;102545.13;;;8.48;100.00
64872;BME280;51351;51.450;6.614;2024-01-30T09:11:09;102533.84;;;8.47;100.00
64872;BME280;51351;51.450;6.614;2024-01-30T09:13:35;102535.38;;;8.51;100.00
64872;BME280;51351;51.450;6.614;2024-01-30T09:16:00;102547.22;;;8.57;100.00
64872;BME280;51351;51.450;6.614;2024-01-30T09:18:26;102546.84;;;8.64;100.00
64872;BME280;51351;51.450;6.614;2024-01-30T09:20:51;102544.94;;;8.68;100.00
64872;BME280;51351;51.450;6.614;2024-01-30T09:23:16;102547.03;;;8.77;100.00
64872;BME280;51351;51.450;6.614;2024-01-30T09:25:43;102543.44;;;8.79;100.00
64872;BME280;51351;51.450;6.614;2024-01-30T09:28:09;102545.53;;;8.88;100.00
64872;BME280;51351;51.450;6.614;2024-01-30T09:30:34;102536.56;;;8.94;100.00
64872;BME280;51351;51.450;6.614;2024-01-30T09:33:00;102536.28;;;8.98;100.00
64872;BME280;51351;51.450;6.614;2024-01-30T09:35:25;102533.28;;;9.06;100.00
64872;BME280;51351;51.450;6.614;2024-01-30T09:37:51;102535.63;;;9.10;100.00
64872;BME280;51351;51.450;6.614;2024-01-30T09:40:17;102532.69;;;9.16;100.00
64872;BME280;51351;51.450;6.614;2024-01-30T09:42:44;102538.25;;;9.26;100.00
64872;BME280;51351;51.450;6.614;2024-01-30T09:45:10;102538.59;;;9.35;100.00
64872;BME280;51351;51.450;6.614;2024-01-30T09:47:42;102545.28;;;9.55;100.00
64872;BME280;51351;51.450;6.614;2024-01-30T09:50:09;102538.16;;;9.58;100.00
64872;BME280;51351;51.450;6.614;2024-01-30T09:52:34;102541.75;;;9.71;100.00
64872;BME280;51351;51.450;6.614;2024-01-30T09:55:01;102541.97;;;9.82;100.00
64872;BME280;51351;51.450;6.614;2024-01-30T09:57:27;102535.09;;;9.96;100.00
64872;BME280;51351;51.450;6.614;2024-01-30T09:59:52;102535.56;;;10.02;100.00
64872;BME280;51351;51.450;6.614;2024-01-30T10:02:20;102534.66;;;10.03;100.00
64872;BME280;51351;51.450;6.614;2024-01-30T10:04:49;102531.09;;;10.04;100.00
64872;BME280;51351;51.450;6.614;2024-01-30T10:07:16;102537.94;;;10.07;100.00
64872;BME280;51351;51.450;6.614;2024-01-30T10:09:41;102530.16;;;10.05;100.00
64872;BME280;51351;51.450;6.614;2024-01-30T10:12:10;102539.75;;;10.05;100.00
64872;BME280;51351;51.450;6.614;2024-01-30T10:14:40;102536.25;;;10.06;100.00
64872;BME280;51351;51.450;6.614;2024-01-30T10:17:09;102543.84;;;10.10;100.00
64872;BME280;51351;51.450;6.614;2024-01-30T10:19:36;102546.19;;;10.15;100.00
64872;BME280;51351;51.450;6.614;2024-01-30T10:22:03;102542.56;;;10.17;100.00
64872;BME280;51351;51.450;6.614;2024-01-30T10:24:29;102548.31;;;10.22;100.00
64872;BME280;51351;51.450;6.614;2024-01-30T10:26:57;102549.84;;;10.26;100.00
64872;BME280;51351;51.450;6.614;2024-01-30T10:29:24;102542.66;;;10.30;100.00
64872;BME280;51351;51.450;6.614;2024-01-30T10:32:01;102551.16;;;10.33;100.00
64872;BME280;51351;51.450;6.614;2024-01-30T10:34:27;102552.47;;;10.40;100.00
64872;BME280;51351;51.450;6.614;2024-01-30T10:37:01;102547.72;;;10.47;100.00
64872;BME280;51351;51.450;6.614;2024-01-30T10:39:29;102553.50;;;10.52;100.00
64872;BME280;51351;51.450;6.614;2024-01-30T10:42:02;102557.53;;;10.57;100.00
64872;BME280;51351;51.450;6.614;2024-01-30T10:44:30;102556.56;;;10.58;100.00
64872;BME280;51351;51.450;6.614;2024-01-30T10:47:07;102552.94;;;10.61;100.00
64872;BME280;51351;51.450;6.614;2024-01-30T10:49:37;102554.72;;;10.60;100.00
64872;BME280;51351;51.450;6.614;2024-01-30T10:52:05;102555.75;;;10.58;100.00
64872;BME280;51351;51.450;6.614;2024-01-30T10:54:31;102557.53;;;10.57;100.00
64872;BME280;51351;51.450;6.614;2024-01-30T10:56:59;102551.53;;;10.55;100.00
64872;BME280;51351;51.450;6.614;2024-01-30T10:59:27;102547.78;;;10.59;100.00
64872;BME280;51351;51.450;6.614;2024-01-30T11:01:53;102548.28;;;10.66;100.00
64872;BME280;51351;51.450;6.614;2024-01-30T11:04:19;102544.44;;;10.71;100.00
64872;BME280;51351;51.450;6.614;2024-01-30T11:06:45;102553.06;;;10.73;100.00
64872;BME280;51351;51.450;6.614;2024-01-30T11:09:17;102548.19;;;10.81;100.00
64872;BME280;51351;51.450;6.614;2024-01-30T11:11:55;102547.91;;;10.86;100.00
64872;BME280;51351;51.450;6.614;2024-01-30T11:14:25;102558.16;;;10.89;100.00
64872;BME280;51351;51.450;6.614;2024-01-30T11:16:57;102555.38;;;10.92;100.00
64872;BME280;51351;51.450;6.614;2024-01-30T11:19:27;102552.56;;;10.95;100.00
64872;BME280;51351;51.450;6.614;2024-01-30T11:21:56;102554.44;;;10.93;100.00
64872;BME280;51351;51.450;6.614;2024-01-30T11:24:24;102560.78;;;10.89;100.00
64872;BME280;51351;51.450;6.614;2024-01-30T11:26:55;102564.81;;;10.80;100.00
64872;BME280;51351;51.450;6.614;2024-01-30T11:29:25;102558.09;;;10.76;100.00
64872;BME280;51351;51.450;6.614;2024-01-30T11:31:54;102555.56;;;10.75;100.00
64872;BME280;51351;51.450;6.614;2024-01-30T11:34:21;102554.72;;;10.74;100.00
64872;BME280;51351;51.450;6.614;2024-01-30T11:36:56;102549.50;;;10.74;100.00
64872;BME280;51351;51.450;6.614;2024-01-30T11:39:25;102541.66;;;10.74;100.00
64872;BME280;51351;51.450;6.614;2024-01-30T11:41:54;102552.09;;;10.74;100.00
64872;BME280;51351;51.450;6.614;2024-01-30T11:44:20;102552.09;;;10.74;100.00
64872;BME280;51351;51.450;6.614;2024-01-30T11:46:50;102541.75;;;10.73;100.00
64872;BME280;51351;51.450;6.614;2024-01-30T11:49:16;102542.69;;;10.72;100.00
64872;BME280;51351;51.450;6.614;2024-01-30T11:51:43;102551.34;;;10.72;100.00
64872;BME280;51351;51.450;6.614;2024-01-30T11:54:11;102548.72;;;10.72;100.00
64872;BME280;51351;51.450;6.614;2024-01-30T11:56:37;102538.09;;;10.75;100.00
64872;BME280;51351;51.450;6.614;2024-01-30T11:59:06;102543.03;;;10.80;100.00
64872;BME280;51351;51.450;6.614;2024-01-30T12:01:32;102534.25;;;10.81;100.00
64872;BME280;51351;51.450;6.614;2024-01-30T12:04:00;102540.53;;;10.78;100.00
64872;BME280;51351;51.450;6.614;2024-01-30T12:06:26;102538.94;;;10.76;100.00
64872;BME280;51351;51.450;6.614;2024-01-30T12:11:22;102536.44;;;10.74;100.00
64872;BME280;51351;51.450;6.614;2024-01-30T12:13:47;102540.63;;;10.77;100.00
64872;BME280;51351;51.450;6.614;2024-01-30T12:16:14;102540.53;;;10.78;100.00
64872;BME280;51351;51.450;6.614;2024-01-30T12:18:40;102537.91;;;10.78;100.00
64872;BME280;51351;51.450;6.614;2024-01-30T12:21:06;102538.66;;;10.80;100.00
64872;BME280;51351;51.450;6.614;2024-01-30T12:23:33;102542.94;;;10.81;100.00
64872;BME280;51351;51.450;6.614;2024-01-30T12:25:58;102540.25;;;10.83;100.00
64872;BME280;51351;51.450;6.614;2024-01-30T12:28:24;102540.25;;;10.83;100.00
64872;BME280;51351;51.450;6.614;2024-01-30T12:30:50;102541.19;;;10.82;100.00
64872;BME280;51351;51.450;6.614;2024-01-30T12:33:17;102530.72;;;10.82;100.00
64872;BME280;51351;51.450;6.614;2024-01-30T12:35:47;102543.63;;;10.85;100.00
64872;BME280;51351;51.450;6.614;2024-01-30T12:38:17;102536.50;;;10.87;100.00
64872;BME280;51351;51.450;6.614;2024-01-30T12:40:43;102538.19;;;10.88;100.00
64872;BME280;51351;51.450;6.614;2024-01-30T12:43:10;102542.47;;;10.89;100.00
64872;BME280;51351;51.450;6.614;2024-01-30T12:45:36;102545.84;;;10.91;100.00
64872;BME280;51351;51.450;6.614;2024-01-30T12:48:02;102548.56;;;10.89;100.00